sensor_id;sensor_type;location;lat;lon;timestamp;P1;durP1;ratioP1;P2;durP2;ratioP2
6251;SDS011;3159;52.414;9.784;2023-01-31T00:00:23;15.67;;;3.00;;
6251;SDS011;3159;52.414;9.784;2023-01-31T00:02:50;21.17;;;4.13;;
6251;SDS011;3159;52.414;9.784;2023-01-31T00:05:17;19.07;;;3.57;;
6251;SDS011;3159;52.414;9.784;2023-01-31T00:07:44;19.70;;;3.70;;
6251;SDS011;3159;52.414;9.784;2023-01-31T00:10:12;20.33;;;3.57;;
6251;SDS011;3159;52.414;9.784;2023-01-31T00:12:39;20.00;;;3.93;;
6251;SDS011;3159;52.414;9.784;2023-01-31T00:15:06;18.57;;;3.20;;
6251;SDS011;3159;52.414;9.784;2023-01-31T00:17:34;17.93;;;3.17;;
6251;SDS011;3159;52.414;9.784;2023-01-31T00:20:01;19.50;;;3.70;;
6251;SDS011;3159;52.414;9.784;2023-01-31T00:22:27;22.47;;;3.70;;
6251;SDS011;3159;52.414;9.784;2023-01-31T00:24:54;14.60;;;3.27;;
6251;SDS011;3159;52.414;9.784;2023-01-31T00:27:22;17.30;;;3.17;;
6251;SDS011;3159;52.414;9.784;2023-01-31T00:29:49;14.83;;;2.93;;
6251;SDS011;3159;52.414;9.784;2023-01-31T00:32:16;10.57;;;2.60;;
6251;SDS011;3159;52.414;9.784;2023-01-31T00:34:43;11.83;;;2.57;;
6251;SDS011;3159;52.414;9.784;2023-01-31T00:37:09;10.53;;;3.00;;
6251;SDS011;3159;52.414;9.784;2023-01-31T00:39:36;16.90;;;3.50;;
6251;SDS011;3159;52.414;9.784;2023-01-31T00:42:03;18.40;;;3.20;;
6251;SDS011;3159;52.414;9.784;2023-01-31T00:44:31;9.70;;;2.37;;
6251;SDS011;3159;52.414;9.784;2023-01-31T00:46:58;13.17;;;2.30;;
6251;SDS011;3159;52.414;9.784;2023-01-31T00:49:25;9.53;;;2.43;;
6251;SDS011;3159;52.414;9.784;2023-01-31T00:51:52;7.80;;;1.90;;
6251;SDS011;3159;52.414;9.784;2023-01-31T00:54:19;7.90;;;1.97;;
6251;SDS011;3159;52.414;9.784;2023-01-31T00:56:46;13.47;;;2.47;;
6251;SDS011;3159;52.414;9.784;2023-01-31T00:59:12;10.40;;;2.47;;
6251;SDS011;3159;52.414;9.784;2023-01-31T01:01:41;15.00;;;2.70;;
6251;SDS011;3159;52.414;9.784;2023-01-31T01:04:08;8.00;;;2.30;;
6251;SDS011;3159;52.414;9.784;2023-01-31T01:06:36;14.37;;;2.90;;
6251;SDS011;3159;52.414;9.784;2023-01-31T01:09:04;10.23;;;2.27;;
6251;SDS011;3159;52.414;9.784;2023-01-31T01:11:31;12.10;;;3.00;;
6251;SDS011;3159;52.414;9.784;2023-01-31T01:13:59;10.33;;;2.27;;
6251;SDS011;3159;52.414;9.784;2023-01-31T01:16:29;13.40;;;2.33;;
6251;SDS011;3159;52.414;9.784;2023-01-31T01:18:59;11.87;;;3.17;;
6251;SDS011;3159;52.414;9.784;2023-01-31T01:21:28;18.47;;;3.07;;
6251;SDS011;3159;52.414;9.784;2023-01-31T01:23:56;13.97;;;2.80;;
6251;SDS011;3159;52.414;9.784;2023-01-31T01:26:25;13.87;;;2.30;;
6251;SDS011;3159;52.414;9.784;2023-01-31T01:28:54;14.57;;;3.20;;
6251;SDS011;3159;52.414;9.784;2023-01-31T01:31:22;13.73;;;2.70;;
6251;SDS011;3159;52.414;9.784;2023-01-31T01:33:54;15.07;;;3.00;;
6251;SDS011;3159;52.414;9.784;2023-01-31T01:36:24;15.93;;;2.97;;
6251;SDS011;3159;52.414;9.784;2023-01-31T01:38:51;18.20;;;2.90;;
6251;SDS011;3159;52.414;9.784;2023-01-31T01:41:19;13.97;;;2.70;;
6251;SDS011;3159;52.414;9.784;2023-01-31T01:43:47;11.67;;;2.67;;
6251;SDS011;3159;52.414;9.784;2023-01-31T01:46:17;12.77;;;2.97;;
6251;SDS011;3159;52.414;9.784;2023-01-31T01:48:48;14.80;;;3.20;;
6251;SDS011;3159;52.414;9.784;2023-01-31T01:51:17;16.47;;;3.30;;
6251;SDS011;3159;52.414;9.784;2023-01-31T01:53:47;11.50;;;3.13;;
6251;SDS011;3159;52.414;9.784;2023-01-31T01:56:18;12.30;;;2.73;;
6251;SDS011;3159;52.414;9.784;2023-01-31T01:58:50;17.13;;;3.17;;
6251;SDS011;3159;52.414;9.784;2023-01-31T02:01:20;15.57;;;3.00;;
6251;SDS011;3159;52.414;9.784;2023-01-31T02:03:49;17.40;;;3.27;;
6251;SDS011;3159;52.414;9.784;2023-01-31T02:06:17;17.20;;;3.30;;
6251;SDS011;3159;52.414;9.784;2023-01-31T02:08:47;15.53;;;2.77;;
6251;SDS011;3159;52.414;9.784;2023-01-31T02:11:15;15.93;;;3.50;;
6251;SDS011;3159;52.414;9.784;2023-01-31T02:13:47;16.13;;;3.73;;
6251;SDS011;3159;52.414;9.784;2023-01-31T02:16:16;20.90;;;3.30;;
6251;SDS011;3159;52.414;9.784;2023-01-31T02:18:42;15.17;;;3.20;;
6251;SDS011;3159;52.414;9.784;2023-01-31T02:24:22;13.63;;;2.70;;
6251;SDS011;3159;52.414;9.784;2023-01-31T02:27:14;12.93;;;2.70;;
6251;SDS011;3159;52.414;9.784;2023-01-31T02:29:52;14.40;;;2.83;;
6251;SDS011;3159;52.414;9.784;2023-01-31T02:32:45;12.60;;;2.50;;
6251;SDS011;3159;52.414;9.784;2023-01-31T02:35:20;12.43;;;2.23;;
6251;SDS011;3159;52.414;9.784;2023-01-31T02:37:59;13.67;;;2.47;;
6251;SDS011;3159;52.414;9.784;2023-01-31T02:40:35;8.97;;;2.47;;
6251;SDS011;3159;52.414;9.784;2023-01-31T02:43:07;12.40;;;2.30;;
6251;SDS011;3159;52.414;9.784;2023-01-31T02:45:39;11.87;;;2.33;;
6251;SDS011;3159;52.414;9.784;2023-01-31T02:48:17;14.00;;;2.90;;
6251;SDS011;3159;52.414;9.784;2023-01-31T02:50:53;12.83;;;2.27;;
6251;SDS011;3159;52.414;9.784;2023-01-31T02:53:26;13.30;;;2.90;;
6251;SDS011;3159;52.414;9.784;2023-01-31T02:55:57;12.37;;;2.57;;
6251;SDS011;3159;52.414;9.784;2023-01-31T02:58:45;12.80;;;2.60;;
6251;SDS011;3159;52.414;9.784;2023-01-31T03:01:16;22.47;;;3.07;;
6251;SDS011;3159;52.414;9.784;2023-01-31T03:03:50;13.93;;;2.90;;
6251;SDS011;3159;52.414;9.784;2023-01-31T03:09:27;10.47;;;2.47;;
6251;SDS011;3159;52.414;9.784;2023-01-31T03:12:03;15.10;;;2.70;;
6251;SDS011;3159;52.414;9.784;2023-01-31T03:14:51;11.13;;;2.80;;
6251;SDS011;3159;52.414;9.784;2023-01-31T03:17:28;15.40;;;2.97;;
6251;SDS011;3159;52.414;9.784;2023-01-31T03:20:07;12.47;;;3.00;;
6251;SDS011;3159;52.414;9.784;2023-01-31T03:22:40;14.30;;;2.77;;
6251;SDS011;3159;52.414;9.784;2023-01-31T03:25:10;21.97;;;3.20;;
6251;SDS011;3159;52.414;9.784;2023-01-31T03:27:41;20.60;;;3.47;;
6251;SDS011;3159;52.414;9.784;2023-01-31T03:30:12;13.50;;;2.87;;
6251;SDS011;3159;52.414;9.784;2023-01-31T03:32:42;16.87;;;3.00;;
6251;SDS011;3159;52.414;9.784;2023-01-31T03:35:15;14.10;;;3.00;;
6251;SDS011;3159;52.414;9.784;2023-01-31T03:37:43;8.40;;;3.23;;
6251;SDS011;3159;52.414;9.784;2023-01-31T03:40:18;20.93;;;3.13;;
6251;SDS011;3159;52.414;9.784;2023-01-31T03:42:50;15.23;;;3.20;;
6251;SDS011;3159;52.414;9.784;2023-01-31T03:45:24;13.53;;;2.70;;
6251;SDS011;3159;52.414;9.784;2023-01-31T03:47:53;9.80;;;2.53;;
6251;SDS011;3159;52.414;9.784;2023-01-31T03:50:24;19.30;;;3.33;;
6251;SDS011;3159;52.414;9.784;2023-01-31T03:52:54;14.73;;;2.83;;
6251;SDS011;3159;52.414;9.784;2023-01-31T03:55:26;13.40;;;2.80;;
6251;SDS011;3159;52.414;9.784;2023-01-31T03:57:56;13.67;;;2.70;;
6251;SDS011;3159;52.414;9.784;2023-01-31T04:00:27;16.40;;;3.37;;
6251;SDS011;3159;52.414;9.784;2023-01-31T04:02:55;16.13;;;3.03;;
6251;SDS011;3159;52.414;9.784;2023-01-31T04:05:27;15.17;;;3.43;;
6251;SDS011;3159;52.414;9.784;2023-01-31T04:07:56;16.77;;;3.07;;
6251;SDS011;3159;52.414;9.784;2023-01-31T04:10:23;10.67;;;2.80;;
6251;SDS011;3159;52.414;9.784;2023-01-31T04:12:51;19.73;;;2.67;;
6251;SDS011;3159;52.414;9.784;2023-01-31T04:15:18;16.40;;;2.33;;
6251;SDS011;3159;52.414;9.784;2023-01-31T04:17:45;17.77;;;3.27;;
6251;SDS011;3159;52.414;9.784;2023-01-31T04:20:12;16.87;;;2.60;;
6251;SDS011;3159;52.414;9.784;2023-01-31T04:22:42;20.67;;;3.80;;
6251;SDS011;3159;52.414;9.784;2023-01-31T04:25:08;16.90;;;2.80;;
6251;SDS011;3159;52.414;9.784;2023-01-31T04:27:36;20.27;;;3.03;;
6251;SDS011;3159;52.414;9.784;2023-01-31T04:30:03;11.67;;;2.30;;
6251;SDS011;3159;52.414;9.784;2023-01-31T04:32:31;11.90;;;3.07;;
6251;SDS011;3159;52.414;9.784;2023-01-31T04:34:58;13.93;;;2.90;;
6251;SDS011;3159;52.414;9.784;2023-01-31T04:37:24;15.27;;;2.20;;
6251;SDS011;3159;52.414;9.784;2023-01-31T04:39:53;12.97;;;2.90;;
6251;SDS011;3159;52.414;9.784;2023-01-31T04:42:19;12.70;;;3.33;;
6251;SDS011;3159;52.414;9.784;2023-01-31T04:44:46;17.63;;;2.73;;
6251;SDS011;3159;52.414;9.784;2023-01-31T04:47:13;13.00;;;2.40;;
6251;SDS011;3159;52.414;9.784;2023-01-31T04:49:40;16.80;;;2.73;;
6251;SDS011;3159;52.414;9.784;2023-01-31T04:52:08;14.03;;;2.87;;
6251;SDS011;3159;52.414;9.784;2023-01-31T04:54:35;18.33;;;3.10;;
6251;SDS011;3159;52.414;9.784;2023-01-31T04:57:04;13.47;;;2.50;;
6251;SDS011;3159;52.414;9.784;2023-01-31T04:59:30;10.13;;;2.63;;
6251;SDS011;3159;52.414;9.784;2023-01-31T05:01:57;22.40;;;3.23;;
6251;SDS011;3159;52.414;9.784;2023-01-31T05:04:24;12.97;;;2.87;;
6251;SDS011;3159;52.414;9.784;2023-01-31T05:06:51;16.77;;;3.20;;
6251;SDS011;3159;52.414;9.784;2023-01-31T05:09:18;15.57;;;2.53;;
6251;SDS011;3159;52.414;9.784;2023-01-31T05:11:46;11.63;;;2.43;;
6251;SDS011;3159;52.414;9.784;2023-01-31T05:14:14;8.87;;;2.50;;
6251;SDS011;3159;52.414;9.784;2023-01-31T05:16:42;11.57;;;2.50;;
6251;SDS011;3159;52.414;9.784;2023-01-31T05:19:11;14.90;;;2.60;;
6251;SDS011;3159;52.414;9.784;2023-01-31T05:21:38;13.10;;;2.57;;
6251;SDS011;3159;52.414;9.784;2023-01-31T05:24:31;15.00;;;3.00;;
6251;SDS011;3159;52.414;9.784;2023-01-31T05:26:59;15.07;;;2.70;;
6251;SDS011;3159;52.414;9.784;2023-01-31T05:29:27;13.23;;;2.53;;
6251;SDS011;3159;52.414;9.784;2023-01-31T05:31:56;13.40;;;2.67;;
6251;SDS011;3159;52.414;9.784;2023-01-31T05:34:25;8.77;;;2.30;;
6251;SDS011;3159;52.414;9.784;2023-01-31T05:36:52;12.97;;;2.33;;
6251;SDS011;3159;52.414;9.784;2023-01-31T05:39:19;14.97;;;2.57;;
6251;SDS011;3159;52.414;9.784;2023-01-31T05:41:47;8.57;;;2.30;;
6251;SDS011;3159;52.414;9.784;2023-01-31T05:44:14;10.50;;;2.50;;
6251;SDS011;3159;52.414;9.784;2023-01-31T05:46:41;12.30;;;2.93;;
6251;SDS011;3159;52.414;9.784;2023-01-31T05:49:08;11.60;;;2.70;;
6251;SDS011;3159;52.414;9.784;2023-01-31T05:51:35;15.70;;;3.20;;
6251;SDS011;3159;52.414;9.784;2023-01-31T05:54:02;11.47;;;2.63;;
6251;SDS011;3159;52.414;9.784;2023-01-31T05:56:29;14.40;;;2.87;;
6251;SDS011;3159;52.414;9.784;2023-01-31T05:58:58;19.07;;;3.00;;
6251;SDS011;3159;52.414;9.784;2023-01-31T06:01:26;12.27;;;2.37;;
6251;SDS011;3159;52.414;9.784;2023-01-31T06:03:53;10.90;;;3.03;;
6251;SDS011;3159;52.414;9.784;2023-01-31T06:06:21;19.20;;;2.97;;
6251;SDS011;3159;52.414;9.784;2023-01-31T06:08:47;13.23;;;2.87;;
6251;SDS011;3159;52.414;9.784;2023-01-31T06:11:14;13.13;;;2.73;;
6251;SDS011;3159;52.414;9.784;2023-01-31T06:13:43;9.77;;;2.60;;
6251;SDS011;3159;52.414;9.784;2023-01-31T06:16:14;12.90;;;2.50;;
6251;SDS011;3159;52.414;9.784;2023-01-31T06:18:41;13.23;;;3.10;;
6251;SDS011;3159;52.414;9.784;2023-01-31T06:21:07;15.87;;;3.03;;
6251;SDS011;3159;52.414;9.784;2023-01-31T06:23:36;11.30;;;2.80;;
6251;SDS011;3159;52.414;9.784;2023-01-31T06:26:03;13.23;;;2.80;;
6251;SDS011;3159;52.414;9.784;2023-01-31T06:28:30;11.47;;;2.80;;
6251;SDS011;3159;52.414;9.784;2023-01-31T06:30:57;12.10;;;2.70;;
6251;SDS011;3159;52.414;9.784;2023-01-31T06:33:25;13.10;;;2.60;;
6251;SDS011;3159;52.414;9.784;2023-01-31T06:35:52;13.40;;;2.60;;
6251;SDS011;3159;52.414;9.784;2023-01-31T06:38:23;14.97;;;3.07;;
6251;SDS011;3159;52.414;9.784;2023-01-31T06:40:51;12.83;;;3.17;;
6251;SDS011;3159;52.414;9.784;2023-01-31T06:43:18;12.30;;;3.10;;
6251;SDS011;3159;52.414;9.784;2023-01-31T06:45:45;13.47;;;2.60;;
6251;SDS011;3159;52.414;9.784;2023-01-31T06:48:13;13.07;;;2.60;;
6251;SDS011;3159;52.414;9.784;2023-01-31T06:50:42;9.87;;;2.67;;
6251;SDS011;3159;52.414;9.784;2023-01-31T06:53:09;10.83;;;2.27;;
6251;SDS011;3159;52.414;9.784;2023-01-31T06:55:36;12.73;;;3.23;;
6251;SDS011;3159;52.414;9.784;2023-01-31T06:58:04;15.17;;;3.10;;
6251;SDS011;3159;52.414;9.784;2023-01-31T07:00:31;8.80;;;2.20;;
6251;SDS011;3159;52.414;9.784;2023-01-31T07:02:58;14.80;;;3.13;;
6251;SDS011;3159;52.414;9.784;2023-01-31T07:05:24;8.67;;;2.30;;
6251;SDS011;3159;52.414;9.784;2023-01-31T07:07:54;11.77;;;3.00;;
6251;SDS011;3159;52.414;9.784;2023-01-31T07:10:21;13.40;;;3.00;;
6251;SDS011;3159;52.414;9.784;2023-01-31T07:12:48;15.73;;;3.60;;
6251;SDS011;3159;52.414;9.784;2023-01-31T07:15:15;14.53;;;3.30;;
6251;SDS011;3159;52.414;9.784;2023-01-31T07:17:45;13.43;;;3.33;;
6251;SDS011;3159;52.414;9.784;2023-01-31T07:20:12;15.13;;;4.27;;
6251;SDS011;3159;52.414;9.784;2023-01-31T07:22:39;15.43;;;3.87;;
6251;SDS011;3159;52.414;9.784;2023-01-31T07:25:07;15.30;;;3.77;;
6251;SDS011;3159;52.414;9.784;2023-01-31T07:27:34;17.63;;;4.20;;
6251;SDS011;3159;52.414;9.784;2023-01-31T07:30:02;12.27;;;4.17;;
6251;SDS011;3159;52.414;9.784;2023-01-31T07:32:29;13.23;;;4.97;;
6251;SDS011;3159;52.414;9.784;2023-01-31T07:34:56;14.37;;;4.17;;
6251;SDS011;3159;52.414;9.784;2023-01-31T07:37:26;23.47;;;4.97;;
6251;SDS011;3159;52.414;9.784;2023-01-31T07:39:53;17.87;;;5.03;;
6251;SDS011;3159;52.414;9.784;2023-01-31T07:42:21;15.67;;;4.40;;
6251;SDS011;3159;52.414;9.784;2023-01-31T07:44:48;13.40;;;3.93;;
6251;SDS011;3159;52.414;9.784;2023-01-31T07:47:15;13.80;;;4.13;;
6251;SDS011;3159;52.414;9.784;2023-01-31T07:49:41;15.33;;;4.73;;
6251;SDS011;3159;52.414;9.784;2023-01-31T07:52:08;16.17;;;4.13;;
6251;SDS011;3159;52.414;9.784;2023-01-31T07:54:35;17.97;;;4.47;;
6251;SDS011;3159;52.414;9.784;2023-01-31T07:57:02;12.90;;;4.57;;
6251;SDS011;3159;52.414;9.784;2023-01-31T07:59:30;17.90;;;4.60;;
6251;SDS011;3159;52.414;9.784;2023-01-31T08:01:57;14.83;;;4.97;;
6251;SDS011;3159;52.414;9.784;2023-01-31T08:04:41;19.33;;;5.03;;
6251;SDS011;3159;52.414;9.784;2023-01-31T08:07:08;17.20;;;4.87;;
6251;SDS011;3159;52.414;9.784;2023-01-31T08:09:35;18.63;;;5.13;;
6251;SDS011;3159;52.414;9.784;2023-01-31T08:12:03;17.03;;;5.10;;
6251;SDS011;3159;52.414;9.784;2023-01-31T08:14:33;15.27;;;5.47;;
6251;SDS011;3159;52.414;9.784;2023-01-31T08:17:00;13.90;;;4.30;;
6251;SDS011;3159;52.414;9.784;2023-01-31T08:19:26;17.27;;;4.63;;
6251;SDS011;3159;52.414;9.784;2023-01-31T08:21:53;14.20;;;5.40;;
6251;SDS011;3159;52.414;9.784;2023-01-31T08:24:20;21.07;;;5.37;;
6251;SDS011;3159;52.414;9.784;2023-01-31T08:26:47;18.27;;;5.30;;
6251;SDS011;3159;52.414;9.784;2023-01-31T08:29:14;16.27;;;5.50;;
6251;SDS011;3159;52.414;9.784;2023-01-31T08:31:42;21.30;;;6.03;;
6251;SDS011;3159;52.414;9.784;2023-01-31T08:34:09;14.97;;;4.30;;
6251;SDS011;3159;52.414;9.784;2023-01-31T08:36:36;22.90;;;5.67;;
6251;SDS011;3159;52.414;9.784;2023-01-31T08:39:03;10.90;;;4.67;;
6251;SDS011;3159;52.414;9.784;2023-01-31T08:41:32;18.87;;;4.60;;
6251;SDS011;3159;52.414;9.784;2023-01-31T08:44:00;18.20;;;5.07;;
6251;SDS011;3159;52.414;9.784;2023-01-31T08:46:30;17.97;;;5.30;;
6251;SDS011;3159;52.414;9.784;2023-01-31T08:49:00;12.33;;;5.13;;
6251;SDS011;3159;52.414;9.784;2023-01-31T08:51:28;17.27;;;5.23;;
6251;SDS011;3159;52.414;9.784;2023-01-31T08:53:55;15.60;;;5.10;;
6251;SDS011;3159;52.414;9.784;2023-01-31T08:56:22;18.07;;;5.70;;
6251;SDS011;3159;52.414;9.784;2023-01-31T08:58:50;19.00;;;5.80;;
6251;SDS011;3159;52.414;9.784;2023-01-31T09:01:18;23.63;;;5.23;;
6251;SDS011;3159;52.414;9.784;2023-01-31T09:03:46;12.80;;;4.80;;
6251;SDS011;3159;52.414;9.784;2023-01-31T09:06:16;13.10;;;5.40;;
6251;SDS011;3159;52.414;9.784;2023-01-31T09:08:44;15.40;;;5.40;;
6251;SDS011;3159;52.414;9.784;2023-01-31T09:11:12;13.87;;;5.43;;
6251;SDS011;3159;52.414;9.784;2023-01-31T09:13:41;13.47;;;5.10;;
6251;SDS011;3159;52.414;9.784;2023-01-31T09:16:09;17.23;;;6.00;;
6251;SDS011;3159;52.414;9.784;2023-01-31T09:18:38;18.57;;;5.87;;
6251;SDS011;3159;52.414;9.784;2023-01-31T09:21:05;21.70;;;6.03;;
6251;SDS011;3159;52.414;9.784;2023-01-31T09:23:35;16.37;;;6.30;;
6251;SDS011;3159;52.414;9.784;2023-01-31T09:26:02;12.80;;;5.63;;
6251;SDS011;3159;52.414;9.784;2023-01-31T09:28:30;17.80;;;6.33;;
6251;SDS011;3159;52.414;9.784;2023-01-31T09:31:01;19.43;;;6.80;;
6251;SDS011;3159;52.414;9.784;2023-01-31T09:33:29;13.57;;;6.53;;
6251;SDS011;3159;52.414;9.784;2023-01-31T09:35:58;18.00;;;6.47;;
6251;SDS011;3159;52.414;9.784;2023-01-31T09:38:26;13.43;;;6.37;;
6251;SDS011;3159;52.414;9.784;2023-01-31T09:40:55;18.80;;;6.73;;
6251;SDS011;3159;52.414;9.784;2023-01-31T09:43:23;14.20;;;6.50;;
6251;SDS011;3159;52.414;9.784;2023-01-31T09:45:54;20.73;;;7.77;;
6251;SDS011;3159;52.414;9.784;2023-01-31T09:48:25;15.33;;;7.07;;
6251;SDS011;3159;52.414;9.784;2023-01-31T09:50:57;18.07;;;7.17;;
6251;SDS011;3159;52.414;9.784;2023-01-31T09:53:24;15.97;;;7.67;;
6251;SDS011;3159;52.414;9.784;2023-01-31T09:55:58;14.90;;;8.10;;
6251;SDS011;3159;52.414;9.784;2023-01-31T09:58:39;23.37;;;7.40;;
6251;SDS011;3159;52.414;9.784;2023-01-31T10:01:15;18.57;;;7.03;;
6251;SDS011;3159;52.414;9.784;2023-01-31T10:03:47;15.27;;;5.87;;
6251;SDS011;3159;52.414;9.784;2023-01-31T10:06:24;18.10;;;6.33;;
6251;SDS011;3159;52.414;9.784;2023-01-31T10:08:58;15.60;;;6.90;;
6251;SDS011;3159;52.414;9.784;2023-01-31T10:11:33;10.87;;;6.23;;
6251;SDS011;3159;52.414;9.784;2023-01-31T10:14:06;12.40;;;6.50;;
6251;SDS011;3159;52.414;9.784;2023-01-31T10:16:46;12.23;;;6.07;;
6251;SDS011;3159;52.414;9.784;2023-01-31T10:19:23;14.90;;;6.17;;
6251;SDS011;3159;52.414;9.784;2023-01-31T10:21:55;16.43;;;6.30;;
6251;SDS011;3159;52.414;9.784;2023-01-31T10:24:26;11.57;;;6.10;;
6251;SDS011;3159;52.414;9.784;2023-01-31T10:27:00;13.30;;;6.60;;
6251;SDS011;3159;52.414;9.784;2023-01-31T10:29:32;10.13;;;6.10;;
6251;SDS011;3159;52.414;9.784;2023-01-31T10:32:03;10.83;;;5.07;;
6251;SDS011;3159;52.414;9.784;2023-01-31T10:34:37;11.70;;;5.53;;
6251;SDS011;3159;52.414;9.784;2023-01-31T10:37:11;11.57;;;5.63;;
6251;SDS011;3159;52.414;9.784;2023-01-31T10:39:45;10.83;;;5.00;;
6251;SDS011;3159;52.414;9.784;2023-01-31T10:42:20;11.03;;;5.23;;
6251;SDS011;3159;52.414;9.784;2023-01-31T10:44:57;10.87;;;5.53;;
6251;SDS011;3159;52.414;9.784;2023-01-31T10:47:28;9.83;;;4.33;;
6251;SDS011;3159;52.414;9.784;2023-01-31T10:49:57;15.50;;;5.77;;
6251;SDS011;3159;52.414;9.784;2023-01-31T10:52:39;11.53;;;5.60;;
6251;SDS011;3159;52.414;9.784;2023-01-31T10:55:37;12.37;;;5.50;;
6251;SDS011;3159;52.414;9.784;2023-01-31T10:58:10;11.77;;;5.80;;
6251;SDS011;3159;52.414;9.784;2023-01-31T11:00:39;15.20;;;6.33;;
6251;SDS011;3159;52.414;9.784;2023-01-31T11:03:08;11.60;;;6.23;;
6251;SDS011;3159;52.414;9.784;2023-01-31T11:05:36;12.87;;;6.30;;
6251;SDS011;3159;52.414;9.784;2023-01-31T11:08:12;13.43;;;5.90;;
6251;SDS011;3159;52.414;9.784;2023-01-31T11:10:51;11.40;;;5.90;;
6251;SDS011;3159;52.414;9.784;2023-01-31T11:13:21;16.60;;;6.13;;
6251;SDS011;3159;52.414;9.784;2023-01-31T11:15:47;16.17;;;6.03;;
6251;SDS011;3159;52.414;9.784;2023-01-31T11:18:24;10.57;;;4.77;;
6251;SDS011;3159;52.414;9.784;2023-01-31T11:20:54;12.20;;;5.80;;
6251;SDS011;3159;52.414;9.784;2023-01-31T11:23:22;14.67;;;5.83;;
6251;SDS011;3159;52.414;9.784;2023-01-31T11:25:52;11.63;;;5.90;;
6251;SDS011;3159;52.414;9.784;2023-01-31T11:28:22;13.83;;;5.70;;
6251;SDS011;3159;52.414;9.784;2023-01-31T11:30:53;16.00;;;6.37;;
6251;SDS011;3159;52.414;9.784;2023-01-31T11:33:37;13.87;;;5.57;;
6251;SDS011;3159;52.414;9.784;2023-01-31T11:36:14;12.27;;;5.90;;
6251;SDS011;3159;52.414;9.784;2023-01-31T11:38:46;10.93;;;5.80;;
6251;SDS011;3159;52.414;9.784;2023-01-31T11:41:27;11.90;;;5.73;;
6251;SDS011;3159;52.414;9.784;2023-01-31T11:44:14;12.47;;;5.97;;
6251;SDS011;3159;52.414;9.784;2023-01-31T11:46:52;12.83;;;6.77;;
6251;SDS011;3159;52.414;9.784;2023-01-31T11:49:23;14.30;;;6.23;;
6251;SDS011;3159;52.414;9.784;2023-01-31T11:51:54;9.80;;;5.97;;
6251;SDS011;3159;52.414;9.784;2023-01-31T11:54:23;14.93;;;6.47;;
6251;SDS011;3159;52.414;9.784;2023-01-31T11:56:52;11.93;;;6.53;;
6251;SDS011;3159;52.414;9.784;2023-01-31T11:59:22;13.40;;;6.80;;
6251;SDS011;3159;52.414;9.784;2023-01-31T12:01:53;13.23;;;6.73;;
6251;SDS011;3159;52.414;9.784;2023-01-31T12:04:23;18.47;;;7.73;;
6251;SDS011;3159;52.414;9.784;2023-01-31T12:06:56;13.70;;;7.83;;
6251;SDS011;3159;52.414;9.784;2023-01-31T12:09:27;20.77;;;7.27;;
6251;SDS011;3159;52.414;9.784;2023-01-31T12:11:57;15.53;;;7.60;;
6251;SDS011;3159;52.414;9.784;2023-01-31T12:14:36;13.57;;;7.17;;
6251;SDS011;3159;52.414;9.784;2023-01-31T12:17:04;17.07;;;6.83;;
6251;SDS011;3159;52.414;9.784;2023-01-31T12:19:37;14.83;;;7.30;;
6251;SDS011;3159;52.414;9.784;2023-01-31T12:22:15;13.93;;;7.00;;
6251;SDS011;3159;52.414;9.784;2023-01-31T12:24:51;13.33;;;6.83;;
6251;SDS011;3159;52.414;9.784;2023-01-31T12:27:29;19.03;;;8.00;;
6251;SDS011;3159;52.414;9.784;2023-01-31T12:30:13;14.10;;;6.67;;
6251;SDS011;3159;52.414;9.784;2023-01-31T12:32:57;17.33;;;7.00;;
6251;SDS011;3159;52.414;9.784;2023-01-31T12:35:38;18.40;;;7.47;;
6251;SDS011;3159;52.414;9.784;2023-01-31T12:38:17;14.83;;;6.90;;
6251;SDS011;3159;52.414;9.784;2023-01-31T12:41:01;17.60;;;7.23;;
6251;SDS011;3159;52.414;9.784;2023-01-31T12:43:43;10.27;;;6.67;;
6251;SDS011;3159;52.414;9.784;2023-01-31T12:46:31;16.10;;;7.20;;
6251;SDS011;3159;52.414;9.784;2023-01-31T12:52:22;12.60;;;6.57;;
6251;SDS011;3159;52.414;9.784;2023-01-31T12:55:00;13.80;;;7.07;;
6251;SDS011;3159;52.414;9.784;2023-01-31T12:57:39;16.47;;;7.33;;
6251;SDS011;3159;52.414;9.784;2023-01-31T13:00:13;14.27;;;7.10;;
6251;SDS011;3159;52.414;9.784;2023-01-31T13:02:53;14.50;;;7.90;;
6251;SDS011;3159;52.414;9.784;2023-01-31T13:05:35;15.03;;;8.37;;
6251;SDS011;3159;52.414;9.784;2023-01-31T13:08:11;16.03;;;8.77;;
6251;SDS011;3159;52.414;9.784;2023-01-31T13:10:44;15.27;;;7.87;;
6251;SDS011;3159;52.414;9.784;2023-01-31T13:13:16;16.70;;;8.20;;
6251;SDS011;3159;52.414;9.784;2023-01-31T13:15:48;16.17;;;9.43;;
6251;SDS011;3159;52.414;9.784;2023-01-31T13:18:20;16.73;;;10.33;;
6251;SDS011;3159;52.414;9.784;2023-01-31T13:20:49;19.10;;;10.07;;
6251;SDS011;3159;52.414;9.784;2023-01-31T13:23:22;17.53;;;9.87;;
6251;SDS011;3159;52.414;9.784;2023-01-31T13:25:56;22.23;;;10.77;;
6251;SDS011;3159;52.414;9.784;2023-01-31T13:28:31;13.10;;;9.63;;
6251;SDS011;3159;52.414;9.784;2023-01-31T13:31:03;15.43;;;8.90;;
6251;SDS011;3159;52.414;9.784;2023-01-31T13:33:35;15.57;;;10.43;;
6251;SDS011;3159;52.414;9.784;2023-01-31T13:36:07;19.67;;;10.53;;
6251;SDS011;3159;52.414;9.784;2023-01-31T13:38:43;14.43;;;10.27;;
6251;SDS011;3159;52.414;9.784;2023-01-31T13:41:16;17.23;;;10.87;;
6251;SDS011;3159;52.414;9.784;2023-01-31T13:43:51;20.53;;;10.80;;
6251;SDS011;3159;52.414;9.784;2023-01-31T13:46:19;18.77;;;10.47;;
6251;SDS011;3159;52.414;9.784;2023-01-31T13:48:52;19.43;;;11.30;;
6251;SDS011;3159;52.414;9.784;2023-01-31T13:51:24;14.23;;;10.50;;
6251;SDS011;3159;52.414;9.784;2023-01-31T13:53:59;14.97;;;9.40;;
6251;SDS011;3159;52.414;9.784;2023-01-31T13:56:32;16.93;;;10.83;;
6251;SDS011;3159;52.414;9.784;2023-01-31T13:59:01;16.37;;;10.37;;
6251;SDS011;3159;52.414;9.784;2023-01-31T14:01:33;14.87;;;8.70;;
6251;SDS011;3159;52.414;9.784;2023-01-31T14:04:28;14.60;;;9.10;;
6251;SDS011;3159;52.414;9.784;2023-01-31T14:09:42;13.67;;;9.17;;
6251;SDS011;3159;52.414;9.784;2023-01-31T14:12:25;13.73;;;9.67;;
6251;SDS011;3159;52.414;9.784;2023-01-31T14:14:59;12.83;;;8.87;;
6251;SDS011;3159;52.414;9.784;2023-01-31T14:20:28;13.67;;;9.20;;
6251;SDS011;3159;52.414;9.784;2023-01-31T14:25:55;11.17;;;7.40;;
6251;SDS011;3159;52.414;9.784;2023-01-31T14:28:22;9.23;;;7.20;;
6251;SDS011;3159;52.414;9.784;2023-01-31T14:30:49;9.37;;;7.47;;
6251;SDS011;3159;52.414;9.784;2023-01-31T14:33:20;12.43;;;8.10;;
6251;SDS011;3159;52.414;9.784;2023-01-31T14:36:02;11.90;;;7.03;;
6251;SDS011;3159;52.414;9.784;2023-01-31T14:45:18;6.83;;;5.97;;
6251;SDS011;3159;52.414;9.784;2023-01-31T14:48:08;11.57;;;6.20;;
6251;SDS011;3159;52.414;9.784;2023-01-31T14:50:46;11.80;;;6.37;;
6251;SDS011;3159;52.414;9.784;2023-01-31T14:56:34;9.73;;;6.03;;
6251;SDS011;3159;52.414;9.784;2023-01-31T14:59:21;10.90;;;6.20;;
6251;SDS011;3159;52.414;9.784;2023-01-31T15:01:52;8.57;;;6.33;;
6251;SDS011;3159;52.414;9.784;2023-01-31T15:04:20;6.10;;;5.20;;
6251;SDS011;3159;52.414;9.784;2023-01-31T15:06:52;9.20;;;6.30;;
6251;SDS011;3159;52.414;9.784;2023-01-31T15:09:34;9.57;;;6.00;;
6251;SDS011;3159;52.414;9.784;2023-01-31T15:12:03;6.13;;;5.10;;
6251;SDS011;3159;52.414;9.784;2023-01-31T15:14:50;11.67;;;5.87;;
6251;SDS011;3159;52.414;9.784;2023-01-31T15:17:18;11.23;;;5.90;;
6251;SDS011;3159;52.414;9.784;2023-01-31T15:19:50;11.23;;;5.67;;
6251;SDS011;3159;52.414;9.784;2023-01-31T15:22:22;7.50;;;5.67;;
6251;SDS011;3159;52.414;9.784;2023-01-31T15:24:51;11.23;;;6.27;;
6251;SDS011;3159;52.414;9.784;2023-01-31T15:27:22;10.03;;;5.53;;
6251;SDS011;3159;52.414;9.784;2023-01-31T15:29:54;8.30;;;5.57;;
6251;SDS011;3159;52.414;9.784;2023-01-31T15:32:30;9.97;;;6.03;;
6251;SDS011;3159;52.414;9.784;2023-01-31T15:35:05;12.37;;;6.27;;
6251;SDS011;3159;52.414;9.784;2023-01-31T15:37:40;9.77;;;6.33;;
6251;SDS011;3159;52.414;9.784;2023-01-31T15:40:13;13.53;;;6.70;;
6251;SDS011;3159;52.414;9.784;2023-01-31T15:42:43;9.80;;;6.77;;
6251;SDS011;3159;52.414;9.784;2023-01-31T15:45:16;10.13;;;6.30;;
6251;SDS011;3159;52.414;9.784;2023-01-31T15:47:53;9.27;;;6.50;;
6251;SDS011;3159;52.414;9.784;2023-01-31T15:50:24;13.20;;;7.30;;
6251;SDS011;3159;52.414;9.784;2023-01-31T15:52:54;15.10;;;7.73;;